createdAt,value
2019-02-27T00:01:05.125Z,99.90
2019-02-27T00:03:32.479Z,99.90
2019-02-27T00:05:59.697Z,99.90
2019-02-27T00:08:27.520Z,99.90
2019-02-27T00:10:54.847Z,99.90
2019-02-27T00:13:24.752Z,99.90
2019-02-27T00:15:51.345Z,99.90
2019-02-27T00:18:18.469Z,99.90
2019-02-27T00:20:45.713Z,99.90
2019-02-27T00:23:13.002Z,99.90
2019-02-27T00:25:40.182Z,99.90
2019-02-27T00:28:07.441Z,99.90
2019-02-27T00:30:37.927Z,99.90
2019-02-27T00:33:03.858Z,99.90
2019-02-27T00:35:31.140Z,99.90
2019-02-27T00:37:58.288Z,99.90
2019-02-27T00:40:25.543Z,99.90
2019-02-27T00:42:54.301Z,99.90
2019-02-27T00:45:21.926Z,99.90
2019-02-27T00:47:53.008Z,99.90
2019-02-27T00:50:18.312Z,99.90
2019-02-27T00:52:45.586Z,99.90
2019-02-27T00:55:12.839Z,99.90
2019-02-27T00:57:40.053Z,99.90
2019-02-27T01:00:10.305Z,99.90
2019-02-27T01:02:37.530Z,99.90
2019-02-27T01:05:06.231Z,99.90
2019-02-27T01:07:34.123Z,99.90
2019-02-27T01:10:01.955Z,99.90
2019-02-27T01:12:29.293Z,99.90
2019-02-27T01:14:56.477Z,99.90
2019-02-27T01:17:24.422Z,99.90
2019-02-27T01:19:51.761Z,99.90
2019-02-27T01:22:18.884Z,99.90
2019-02-27T01:24:49.887Z,99.90
2019-02-27T01:27:15.195Z,99.90
2019-02-27T01:29:42.417Z,99.90
2019-02-27T01:32:09.683Z,99.90
2019-02-27T01:34:36.802Z,99.90
2019-02-27T01:37:04.050Z,99.90
2019-02-27T01:39:31.318Z,99.90
2019-02-27T01:41:58.641Z,99.90
2019-02-27T01:44:25.963Z,99.90
2019-02-27T01:46:54.627Z,99.90
2019-02-27T01:49:21.962Z,99.90
2019-02-27T01:51:49.179Z,99.90
2019-02-27T01:54:16.322Z,99.90
2019-02-27T01:56:43.560Z,99.90
2019-02-27T01:59:10.822Z,99.90
2019-02-27T02:01:37.948Z,99.90
2019-02-27T02:04:05.120Z,99.90
2019-02-27T02:06:32.958Z,99.90
2019-02-27T02:09:30.308Z,99.90
2019-02-27T02:11:57.459Z,99.90
2019-02-27T02:15:12.640Z,99.90
2019-02-27T02:18:18.730Z,99.90
2019-02-27T02:21:05.816Z,99.90
2019-02-27T02:23:54.446Z,99.90
2019-02-27T02:27:18.441Z,99.90
2019-02-27T02:30:29.418Z,99.90
2019-02-27T02:33:08.412Z,99.90
2019-02-27T02:36:29.372Z,99.90
2019-02-27T02:39:09.221Z,99.90
2019-02-27T02:42:17.079Z,99.90
2019-02-27T02:45:11.604Z,99.90
2019-02-27T02:48:07.643Z,99.90
2019-02-27T02:51:18.500Z,99.90
2019-02-27T02:54:16.596Z,99.90
2019-02-27T02:57:10.427Z,99.90
2019-02-27T02:59:59.971Z,99.90
2019-02-27T03:02:52.765Z,99.90
2019-02-27T03:05:50.236Z,99.90
2019-02-27T03:08:46.322Z,99.90
2019-02-27T03:11:54.224Z,99.90
2019-02-27T03:15:02.643Z,99.90
2019-02-27T03:18:08.519Z,99.90
2019-02-27T03:20:51.774Z,99.90
2019-02-27T03:24:04.070Z,99.90
2019-02-27T03:27:08.424Z,99.90
2019-02-27T03:30:14.740Z,99.90
2019-02-27T03:33:27.086Z,99.90
2019-02-27T03:36:25.297Z,99.90
2019-02-27T03:39:07.995Z,99.90
2019-02-27T03:42:10.943Z,99.90
2019-02-27T03:45:16.361Z,99.90
2019-02-27T03:48:35.450Z,99.90
2019-02-27T03:51:44.743Z,99.90
2019-02-27T03:54:27.249Z,99.90
2019-02-27T03:57:20.247Z,99.90
2019-02-27T04:00:32.916Z,99.90
2019-02-27T04:03:18.534Z,99.90
2019-02-27T04:06:22.276Z,99.90
2019-02-27T04:08:56.676Z,99.90
2019-02-27T04:11:24.002Z,99.90
2019-02-27T04:13:51.337Z,99.90
2019-02-27T04:16:18.594Z,99.90
2019-02-27T04:18:45.779Z,99.90
2019-02-27T04:21:12.906Z,99.90
2019-02-27T04:23:40.154Z,99.90
2019-02-27T04:26:07.376Z,99.90
2019-02-27T04:28:34.634Z,99.90
2019-02-27T04:31:01.889Z,99.90
2019-02-27T04:33:29.120Z,99.90
2019-02-27T04:35:56.373Z,99.90
2019-02-27T04:38:25.075Z,99.90
2019-02-27T04:40:52.762Z,99.90
2019-02-27T04:43:19.994Z,99.90
2019-02-27T04:45:47.604Z,99.90
2019-02-27T04:48:15.032Z,99.90
2019-02-27T04:50:44.161Z,99.90
2019-02-27T04:53:11.402Z,99.90
2019-02-27T04:55:38.554Z,99.90
2019-02-27T04:58:08.670Z,99.90
2019-02-27T05:00:34.921Z,99.90
2019-02-27T05:03:02.042Z,99.90
2019-02-27T05:05:29.313Z,99.90
2019-02-27T05:07:56.588Z,99.90
2019-02-27T05:10:23.856Z,99.90
2019-02-27T05:12:50.969Z,99.90
2019-02-27T05:15:18.211Z,99.90
2019-02-27T05:17:45.377Z,99.90
2019-02-27T05:20:12.722Z,99.90
2019-02-27T05:22:40.065Z,99.90
2019-02-27T05:25:07.203Z,99.90
2019-02-27T05:27:34.342Z,99.90
2019-02-27T05:30:01.575Z,99.90
2019-02-27T05:32:28.903Z,99.90
2019-02-27T05:34:56.175Z,99.90
2019-02-27T05:37:23.460Z,99.90
2019-02-27T05:39:51.224Z,99.90
2019-02-27T05:42:18.959Z,99.90
2019-02-27T05:44:46.084Z,99.90
2019-02-27T05:47:13.311Z,99.90
2019-02-27T05:49:40.479Z,99.90
2019-02-27T05:52:07.831Z,99.90
2019-02-27T05:54:35.092Z,99.90
2019-02-27T05:57:02.296Z,99.90
2019-02-27T05:59:29.933Z,99.90
2019-02-27T06:01:57.208Z,99.90
2019-02-27T06:04:25.219Z,99.90
2019-02-27T06:06:52.890Z,99.90
2019-02-27T06:09:20.167Z,99.90
2019-02-27T06:11:47.440Z,99.90
2019-02-27T06:14:14.788Z,99.90
2019-02-27T06:16:41.939Z,99.90
2019-02-27T06:19:09.164Z,99.90
2019-02-27T06:21:36.415Z,99.90
2019-02-27T06:24:03.551Z,99.90
2019-02-27T06:26:32.384Z,99.90
2019-02-27T06:28:59.990Z,99.90
2019-02-27T06:31:27.257Z,99.90
2019-02-27T06:33:54.507Z,99.90
2019-02-27T06:36:21.644Z,99.90
2019-02-27T06:38:48.974Z,99.90
2019-02-27T06:41:16.369Z,99.90
2019-02-27T06:43:43.539Z,99.90
2019-02-27T06:46:10.775Z,99.90
2019-02-27T06:48:38.033Z,99.90
2019-02-27T06:51:05.203Z,99.90
2019-02-27T06:53:32.458Z,99.90
2019-02-27T06:56:02.774Z,99.90
2019-02-27T06:58:29.053Z,99.90
2019-02-27T07:00:56.201Z,99.90
2019-02-27T07:03:23.432Z,99.90
2019-02-27T07:05:50.576Z,99.90
2019-02-27T07:08:17.700Z,99.90
2019-02-27T07:10:44.868Z,99.90
2019-02-27T07:13:12.223Z,99.90
2019-02-27T07:15:39.490Z,99.90
2019-02-27T07:18:06.801Z,99.90
2019-02-27T07:20:34.096Z,99.90
2019-02-27T07:23:04.991Z,99.90
2019-02-27T07:25:32.223Z,99.90
2019-02-27T07:27:59.476Z,92.50
2019-02-27T07:30:26.914Z,95.90
2019-02-27T07:32:55.027Z,85.30
2019-02-27T07:35:26.377Z,75.40
2019-02-27T07:37:53.558Z,70.60
2019-02-27T07:40:21.647Z,68.70
2019-02-27T07:42:48.990Z,74.30
2019-02-27T07:45:16.500Z,71.70
2019-02-27T07:47:43.785Z,77.90
2019-02-27T07:50:12.345Z,86.00
2019-02-27T07:52:39.613Z,91.70
2019-02-27T07:55:18.602Z,94.90
2019-02-27T07:57:35.986Z,98.60
2019-02-27T08:00:04.057Z,99.90
2019-02-27T08:02:33.724Z,99.90
2019-02-27T08:05:00.378Z,99.90
2019-02-27T08:07:27.690Z,99.90
2019-02-27T08:09:54.971Z,99.90
2019-02-27T08:12:22.198Z,99.90
2019-02-27T08:14:49.446Z,99.90
2019-02-27T08:17:17.804Z,99.90
2019-02-27T08:19:46.095Z,94.10
2019-02-27T08:22:13.343Z,88.30
2019-02-27T08:24:41.033Z,75.10
2019-02-27T08:27:09.624Z,69.20
2019-02-27T08:29:37.418Z,66.30
2019-02-27T08:32:05.477Z,61.80
2019-02-27T08:34:32.814Z,58.40
2019-02-27T08:37:00.052Z,59.00
2019-02-27T08:39:27.310Z,56.80
2019-02-27T08:41:54.463Z,58.80
2019-02-27T08:44:21.689Z,57.80
2019-02-27T08:46:48.865Z,57.30
2019-02-27T08:49:16.035Z,57.10
2019-02-27T08:51:43.285Z,54.10
2019-02-27T08:54:10.551Z,54.50
2019-02-27T08:56:37.667Z,49.00
2019-02-27T08:59:05.818Z,48.60
2019-02-27T09:01:33.468Z,48.70
2019-02-27T09:04:00.624Z,50.40
2019-02-27T09:06:28.252Z,54.60
2019-02-27T09:08:55.542Z,56.30
2019-02-27T09:11:22.795Z,57.10
2019-02-27T09:13:49.931Z,59.80
2019-02-27T09:16:17.187Z,62.90
2019-02-27T09:18:44.440Z,60.30
2019-02-27T09:21:11.801Z,61.60
2019-02-27T09:23:39.091Z,61.90
2019-02-27T09:26:06.341Z,63.00
2019-02-27T09:28:33.464Z,64.40
2019-02-27T09:31:04.240Z,65.60
2019-02-27T09:33:38.370Z,66.10
2019-02-27T09:35:59.054Z,63.70
2019-02-27T09:38:26.328Z,63.40
2019-02-27T09:40:53.538Z,66.10
2019-02-27T09:43:20.808Z,67.50
2019-02-27T09:45:47.952Z,68.00
2019-02-27T09:48:15.208Z,66.60
2019-02-27T09:50:47.572Z,68.80
2019-02-27T09:53:12.664Z,66.30
2019-02-27T09:55:39.912Z,68.60
2019-02-27T09:58:11.084Z,67.50
2019-02-27T10:00:38.658Z,66.70
2019-02-27T10:03:05.817Z,65.10
2019-02-27T10:05:36.280Z,63.10
2019-02-27T10:08:02.288Z,64.30
2019-02-27T10:10:29.551Z,61.10
2019-02-27T10:12:56.823Z,55.30
2019-02-27T10:15:25.219Z,53.90
2019-02-27T10:17:53.216Z,56.10
2019-02-27T10:20:20.515Z,57.90
2019-02-27T10:22:47.649Z,58.70
2019-02-27T10:25:14.880Z,60.40
2019-02-27T10:27:42.159Z,61.60
2019-02-27T10:30:11.693Z,61.60
2019-02-27T10:32:38.451Z,61.10
2019-02-27T10:35:05.885Z,60.90
2019-02-27T10:37:33.167Z,58.70
2019-02-27T10:40:00.504Z,48.80
2019-02-27T10:42:27.796Z,47.40
2019-02-27T10:44:54.919Z,43.30
2019-02-27T10:47:22.053Z,44.20
2019-02-27T10:49:49.183Z,43.80
2019-02-27T10:52:16.328Z,41.20
2019-02-27T10:54:43.581Z,40.20
2019-02-27T10:57:10.930Z,38.10
2019-02-27T10:59:38.098Z,34.80
2019-02-27T11:02:05.330Z,36.10
2019-02-27T11:04:32.603Z,36.60
2019-02-27T11:06:59.823Z,33.10
2019-02-27T11:09:27.788Z,38.20
2019-02-27T11:11:55.029Z,33.60
2019-02-27T11:14:22.546Z,36.10
2019-02-27T11:16:49.917Z,35.30
2019-02-27T11:19:17.295Z,34.60
2019-02-27T11:21:44.619Z,33.10
2019-02-27T11:24:16.440Z,37.00
2019-02-27T11:26:40.993Z,38.30
2019-02-27T11:29:08.269Z,35.60
2019-02-27T11:31:35.507Z,32.90
2019-02-27T11:34:05.082Z,34.60
2019-02-27T11:36:31.995Z,37.80
2019-02-27T11:38:59.946Z,36.00
2019-02-27T11:41:27.163Z,39.30
2019-02-27T11:43:54.393Z,39.70
2019-02-27T11:46:21.553Z,37.10
2019-02-27T11:48:48.700Z,36.80
2019-02-27T11:51:17.562Z,36.80
2019-02-27T11:53:45.035Z,37.40
2019-02-27T11:56:12.317Z,37.50
2019-02-27T11:58:39.547Z,34.50
2019-02-27T12:01:06.776Z,34.70
2019-02-27T12:03:34.105Z,33.40
2019-02-27T12:06:01.374Z,32.10
2019-02-27T12:08:30.206Z,36.50
2019-02-27T12:10:57.552Z,35.90
2019-02-27T12:13:24.809Z,36.40
2019-02-27T12:15:51.922Z,35.80
2019-02-27T12:18:19.080Z,36.80
2019-02-27T12:20:46.376Z,34.90
2019-02-27T12:23:13.665Z,37.60
2019-02-27T12:25:40.822Z,35.70
2019-02-27T12:28:08.056Z,36.60
2019-02-27T12:30:37.427Z,36.60
2019-02-27T12:33:04.541Z,37.90
2019-02-27T12:35:31.850Z,38.40
2019-02-27T12:37:59.088Z,36.50
2019-02-27T12:40:26.357Z,37.60
2019-02-27T12:42:53.821Z,39.80
2019-02-27T12:45:21.641Z,40.60
2019-02-27T12:47:48.949Z,37.70
2019-02-27T12:50:17.619Z,38.10
2019-02-27T12:52:47.934Z,40.60
2019-02-27T12:55:14.069Z,41.20
2019-02-27T12:57:41.353Z,38.90
2019-02-27T13:00:10.771Z,40.60
2019-02-27T13:02:38.063Z,41.30
2019-02-27T13:05:06.284Z,41.00
2019-02-27T13:07:33.565Z,42.40
2019-02-27T13:10:00.709Z,42.80
2019-02-27T13:12:27.935Z,42.70
2019-02-27T13:14:55.207Z,43.80
2019-02-27T13:17:22.442Z,44.00
2019-02-27T13:19:49.579Z,44.20
2019-02-27T13:22:16.890Z,43.00
2019-02-27T13:24:44.003Z,45.50
2019-02-27T13:27:11.153Z,45.50
2019-02-27T13:29:38.420Z,45.80
2019-02-27T13:32:05.558Z,47.10
2019-02-27T13:34:32.826Z,48.00
2019-02-27T13:37:00.088Z,46.20
2019-02-27T13:39:27.241Z,48.00
2019-02-27T13:41:54.550Z,47.20
2019-02-27T13:44:21.688Z,48.40
2019-02-27T13:46:48.982Z,48.90
2019-02-27T13:49:16.246Z,49.00
2019-02-27T13:51:43.466Z,50.20
2019-02-27T13:54:10.724Z,50.30
2019-02-27T13:56:37.993Z,50.20
2019-02-27T13:59:07.476Z,50.10
2019-02-27T14:01:34.270Z,50.50
2019-02-27T14:04:01.542Z,51.70
2019-02-27T14:06:28.675Z,51.90
2019-02-27T14:08:55.825Z,51.30
2019-02-27T14:11:24.876Z,52.70
2019-02-27T14:13:52.247Z,53.30
2019-02-27T14:16:19.381Z,53.10
2019-02-27T14:18:49.815Z,53.30
2019-02-27T14:21:15.707Z,53.40
2019-02-27T14:23:43.069Z,53.60
2019-02-27T14:26:10.298Z,52.90
2019-02-27T14:28:37.439Z,53.50
2019-02-27T14:31:09.037Z,53.40
2019-02-27T14:33:33.890Z,53.40
2019-02-27T14:36:01.024Z,54.10
2019-02-27T14:38:28.278Z,54.80
2019-02-27T14:40:55.635Z,54.40
2019-02-27T14:43:27.046Z,54.60
2019-02-27T14:45:52.070Z,54.90
2019-02-27T14:48:21.421Z,54.60
2019-02-27T14:50:48.462Z,55.50
2019-02-27T14:53:16.601Z,55.30
2019-02-27T14:55:44.858Z,55.60
2019-02-27T14:58:12.148Z,55.30
2019-02-27T15:00:40.981Z,55.40
2019-02-27T15:03:08.370Z,54.90
2019-02-27T15:05:36.828Z,55.00
2019-02-27T15:08:04.478Z,55.10
2019-02-27T15:10:31.718Z,56.00
2019-02-27T15:12:58.977Z,56.00
2019-02-27T15:15:27.551Z,55.80
2019-02-27T15:17:55.057Z,55.90
2019-02-27T15:20:23.017Z,56.90
2019-02-27T15:22:52.430Z,57.50
2019-02-27T15:25:19.508Z,57.40
2019-02-27T15:27:46.826Z,58.30
2019-02-27T15:30:16.089Z,58.10
2019-02-27T15:32:43.337Z,57.80
2019-02-27T15:35:10.511Z,58.20
2019-02-27T15:37:38.025Z,58.50
2019-02-27T15:40:06.122Z,59.00
2019-02-27T15:42:33.352Z,59.50
2019-02-27T15:45:00.622Z,59.80
2019-02-27T15:47:30.449Z,59.70
2019-02-27T15:49:56.918Z,59.90
2019-02-27T15:52:24.290Z,60.10
2019-02-27T15:54:51.438Z,60.50
2019-02-27T15:57:18.683Z,61.50
2019-02-27T15:59:45.935Z,62.00
2019-02-27T16:02:13.094Z,62.20
2019-02-27T16:04:40.327Z,63.10
2019-02-27T16:07:07.576Z,63.70
2019-02-27T16:09:34.848Z,64.20
2019-02-27T16:12:02.114Z,64.70
2019-02-27T16:14:30.072Z,65.10
2019-02-27T16:16:57.558Z,65.60
2019-02-27T16:19:25.562Z,66.00
2019-02-27T16:21:56.853Z,66.90
2019-02-27T16:24:22.041Z,66.80
2019-02-27T16:26:49.305Z,67.20
2019-02-27T16:29:16.553Z,67.90
2019-02-27T16:31:43.889Z,68.70
2019-02-27T16:34:13.310Z,69.40
2019-02-27T16:36:40.568Z,69.70
2019-02-27T16:39:08.376Z,71.10
2019-02-27T16:41:35.695Z,71.20
2019-02-27T16:44:03.286Z,72.40
2019-02-27T16:46:30.559Z,73.50
2019-02-27T16:48:57.843Z,73.50
2019-02-27T16:51:26.902Z,75.10
2019-02-27T16:53:54.262Z,77.60
2019-02-27T16:56:21.428Z,79.30
2019-02-27T16:58:48.606Z,78.40
2019-02-27T17:01:15.858Z,81.20
2019-02-27T17:03:45.075Z,82.40
2019-02-27T17:06:14.144Z,82.60
2019-02-27T17:08:41.410Z,83.50
2019-02-27T17:11:08.573Z,87.90
2019-02-27T17:13:35.834Z,86.80
2019-02-27T17:16:03.415Z,90.00
2019-02-27T17:18:30.752Z,91.10
2019-02-27T17:20:57.974Z,91.90
2019-02-27T17:23:25.109Z,92.80
2019-02-27T17:25:52.376Z,92.30
2019-02-27T17:28:19.611Z,96.30
2019-02-27T17:30:46.745Z,95.20
2019-02-27T17:33:15.766Z,96.10
2019-02-27T17:35:43.065Z,96.70
2019-02-27T17:38:10.847Z,96.70
2019-02-27T17:40:39.380Z,96.80
2019-02-27T17:43:06.953Z,97.70
2019-02-27T17:45:34.165Z,99.50
2019-02-27T17:48:01.433Z,99.00
2019-02-27T17:50:31.733Z,98.30
2019-02-27T17:52:57.812Z,99.50
2019-02-27T17:55:25.074Z,99.90
2019-02-27T17:57:55.280Z,99.90
2019-02-27T18:00:35.619Z,99.90
2019-02-27T18:03:05.034Z,99.90
2019-02-27T18:05:31.794Z,99.90
2019-02-27T18:07:59.062Z,99.90
2019-02-27T18:10:26.326Z,99.90
2019-02-27T18:12:53.618Z,99.90
2019-02-27T18:15:21.299Z,99.90
2019-02-27T18:17:48.640Z,99.90
2019-02-27T18:20:16.069Z,99.90
2019-02-27T18:22:45.859Z,99.90
2019-02-27T18:25:12.441Z,99.90
2019-02-27T18:27:39.591Z,99.90
2019-02-27T18:30:08.096Z,99.90
2019-02-27T18:32:39.762Z,99.90
2019-02-27T18:35:05.133Z,99.90
2019-02-27T18:37:32.392Z,99.90
2019-02-27T18:39:59.551Z,99.90
2019-02-27T18:42:26.834Z,99.90
2019-02-27T18:44:54.156Z,99.90
2019-02-27T18:47:21.438Z,99.90
2019-02-27T18:49:48.998Z,99.90
2019-02-27T18:52:21.423Z,99.90
2019-02-27T18:54:46.990Z,99.90
2019-02-27T18:57:14.328Z,99.90
2019-02-27T18:59:41.598Z,99.90
2019-02-27T19:02:08.784Z,99.90
2019-02-27T19:04:36.085Z,99.90
2019-02-27T19:07:03.741Z,99.90
2019-02-27T19:09:32.472Z,99.90
2019-02-27T19:12:00.134Z,99.90
2019-02-27T19:14:27.353Z,99.90
2019-02-27T19:16:55.163Z,99.90
2019-02-27T19:19:23.086Z,99.90
2019-02-27T19:21:50.352Z,99.90
2019-02-27T19:24:17.610Z,99.90
2019-02-27T19:26:45.095Z,99.90
2019-02-27T19:29:12.440Z,99.90
2019-02-27T19:31:39.709Z,99.90
2019-02-27T19:34:07.466Z,99.90
2019-02-27T19:36:36.156Z,99.90
2019-02-27T19:39:04.770Z,99.90
2019-02-27T19:41:31.957Z,99.90
2019-02-27T19:43:59.240Z,99.90
2019-02-27T19:46:26.486Z,99.90
2019-02-27T19:48:53.657Z,99.90
2019-02-27T19:51:20.988Z,99.90
2019-02-27T19:53:48.367Z,99.90
2019-02-27T19:56:15.796Z,99.90
2019-02-27T19:58:42.927Z,99.90
2019-02-27T20:01:10.200Z,99.90
2019-02-27T20:03:37.475Z,99.90
2019-02-27T20:06:04.799Z,99.90
2019-02-27T20:08:32.099Z,99.90
2019-02-27T20:11:05.535Z,99.90
2019-02-27T20:13:28.841Z,99.90
2019-02-27T20:15:56.232Z,99.90
2019-02-27T20:18:24.393Z,99.90
2019-02-27T20:20:51.905Z,99.90
2019-02-27T20:23:19.101Z,99.90
2019-02-27T20:25:46.451Z,99.90
2019-02-27T20:28:13.790Z,99.90
2019-02-27T20:30:41.091Z,99.90
2019-02-27T20:33:08.341Z,99.90
2019-02-27T20:35:35.616Z,99.90
2019-02-27T20:38:03.258Z,99.90
2019-02-27T20:40:33.758Z,99.90
2019-02-27T20:42:59.847Z,99.90
2019-02-27T20:45:27.004Z,99.90
2019-02-27T20:47:57.724Z,99.90
2019-02-27T20:50:34.520Z,99.90
2019-02-27T20:52:55.932Z,99.90
2019-02-27T20:55:23.472Z,99.90
2019-02-27T20:57:50.843Z,99.90
2019-02-27T21:00:18.287Z,99.90
2019-02-27T21:02:45.618Z,99.90
2019-02-27T21:05:13.032Z,99.90
2019-02-27T21:07:40.304Z,99.90
2019-02-27T21:10:10.383Z,99.90
2019-02-27T21:12:40.666Z,99.90
2019-02-27T21:15:07.410Z,99.90
2019-02-27T21:17:34.691Z,99.90
2019-02-27T21:20:02.078Z,99.90
2019-02-27T21:22:29.456Z,99.90
2019-02-27T21:24:56.623Z,99.90
2019-02-27T21:27:23.859Z,99.90
2019-02-27T21:29:51.316Z,99.90
2019-02-27T21:32:18.596Z,99.90
2019-02-27T21:34:45.982Z,99.90
2019-02-27T21:37:13.257Z,99.90
2019-02-27T21:39:40.625Z,99.90
2019-02-27T21:44:31.922Z,99.90
2019-02-27T21:46:59.196Z,99.90
2019-02-27T21:49:29.144Z,99.90
2019-02-27T21:51:55.672Z,99.90
2019-02-27T21:54:22.994Z,99.90
2019-02-27T21:56:51.855Z,99.90
2019-02-27T21:59:19.328Z,99.90
2019-02-27T22:01:46.562Z,99.90
2019-02-27T22:04:13.829Z,99.90
2019-02-27T22:06:41.054Z,99.90
2019-02-27T22:09:10.119Z,99.90
2019-02-27T22:11:37.606Z,99.90
2019-02-27T22:14:04.995Z,99.90
2019-02-27T22:16:32.248Z,99.90
2019-02-27T22:18:59.604Z,99.90
2019-02-27T22:21:26.777Z,99.90
2019-02-27T22:23:53.986Z,99.90
2019-02-27T22:26:21.248Z,99.90
2019-02-27T22:28:51.191Z,99.90
2019-02-27T22:31:17.640Z,99.90
2019-02-27T22:33:44.952Z,99.90
2019-02-27T22:36:12.727Z,99.90
2019-02-27T22:38:40.787Z,99.90
2019-02-27T22:41:09.536Z,99.90
2019-02-27T22:43:37.094Z,99.90
2019-02-27T22:46:04.253Z,99.90
2019-02-27T22:48:31.567Z,99.90
2019-02-27T22:50:58.756Z,99.90
2019-02-27T22:53:26.219Z,99.90
2019-02-27T22:55:55.058Z,99.90
2019-02-27T22:58:22.234Z,99.90
2019-02-27T23:01:14.977Z,99.90
2019-02-27T23:03:57.783Z,99.90
2019-02-27T23:06:25.591Z,99.90
2019-02-27T23:08:54.438Z,99.90
2019-02-27T23:11:21.881Z,99.90
2019-02-27T23:13:49.207Z,99.90
2019-02-27T23:16:17.097Z,99.90
2019-02-27T23:18:44.379Z,99.90
2019-02-27T23:21:11.742Z,99.90
2019-02-27T23:23:39.093Z,99.90
2019-02-27T23:26:06.339Z,99.90
2019-02-27T23:28:34.724Z,99.90
2019-02-27T23:31:02.752Z,99.90
2019-02-27T23:33:29.926Z,99.90
2019-02-27T23:35:57.178Z,99.90
2019-02-27T23:38:24.338Z,99.90
2019-02-27T23:40:51.458Z,99.90
2019-02-27T23:43:19.725Z,99.90
2019-02-27T23:45:47.172Z,99.90
2019-02-27T23:48:14.440Z,99.90
2019-02-27T23:50:42.635Z,99.90
2019-02-27T23:53:10.585Z,99.90
2019-02-27T23:55:38.016Z,99.90
2019-02-27T23:58:05.284Z,99.90
